createdAt,value
2023-05-01T00:00:43.284Z,14.11
2023-05-01T00:01:43.206Z,14.11
2023-05-01T00:02:43.296Z,14.09
2023-05-01T00:03:43.431Z,14.12
2023-05-01T00:04:43.236Z,14.09
2023-05-01T00:05:43.218Z,14.05
2023-05-01T00:06:43.249Z,14.11
2023-05-01T00:07:43.156Z,14.09
2023-05-01T00:08:43.147Z,14.08
2023-05-01T00:09:43.302Z,14.09
2023-05-01T00:10:43.147Z,14.11
2023-05-01T00:11:43.154Z,14.11
2023-05-01T00:12:43.083Z,14.08
2023-05-01T00:13:43.095Z,14.09
2023-05-01T00:14:43.122Z,14.11
2023-05-01T00:15:43.202Z,14.09
2023-05-01T00:16:43.219Z,14.09
2023-05-01T00:17:43.118Z,14.11
2023-05-01T00:18:43.053Z,14.08
2023-05-01T00:19:43.078Z,14.11
2023-05-01T00:20:43.025Z,14.12
2023-05-01T00:21:43.075Z,14.09
2023-05-01T00:22:42.981Z,14.11
2023-05-01T00:23:43.031Z,14.11
2023-05-01T00:24:43.253Z,14.12
2023-05-01T00:25:42.980Z,14.08
2023-05-01T00:26:42.970Z,14.09
2023-05-01T00:27:42.981Z,14.11
2023-05-01T00:28:42.965Z,14.05
2023-05-01T00:29:42.915Z,14.04
2023-05-01T00:30:42.915Z,14.05
2023-05-01T00:31:43.003Z,14.01
2023-05-01T00:32:42.899Z,14.00
2023-05-01T00:33:42.899Z,13.96
2023-05-01T00:34:43.059Z,13.96
2023-05-01T00:35:42.885Z,13.94
2023-05-01T00:36:42.879Z,13.94
2023-05-01T00:37:42.882Z,13.90
2023-05-01T00:38:42.842Z,13.94
2023-05-01T00:39:42.830Z,13.94
2023-05-01T00:40:42.827Z,13.97
2023-05-01T00:41:42.908Z,13.94
2023-05-01T00:42:42.817Z,13.93
2023-05-01T00:43:42.811Z,13.90
2023-05-01T00:44:42.801Z,13.88
2023-05-01T00:45:42.898Z,13.90
2023-05-01T00:46:42.741Z,13.85
2023-05-01T00:47:42.842Z,13.82
2023-05-01T00:48:42.730Z,13.83
2023-05-01T00:49:42.732Z,13.82
2023-05-01T00:50:42.733Z,13.82
2023-05-01T00:51:42.704Z,13.78
2023-05-01T00:52:42.707Z,13.75
2023-05-01T00:53:42.678Z,13.73
2023-05-01T00:54:42.689Z,13.73
2023-05-01T00:55:42.665Z,13.72
2023-05-01T00:56:42.638Z,13.73
2023-05-01T00:57:42.678Z,13.72
2023-05-01T00:58:42.645Z,13.73
2023-05-01T00:59:42.653Z,13.72
2023-05-01T01:00:42.898Z,13.75
2023-05-01T01:01:42.712Z,13.72
2023-05-01T01:02:42.694Z,13.78
2023-05-01T01:03:42.602Z,13.76
2023-05-01T01:04:42.719Z,13.75
2023-05-01T01:05:42.581Z,13.75
2023-05-01T01:06:42.743Z,13.75
2023-05-01T01:07:42.706Z,13.79
2023-05-01T01:08:42.561Z,13.75
2023-05-01T01:09:42.521Z,13.73
2023-05-01T01:10:42.556Z,13.72
2023-05-01T01:11:42.493Z,13.71
2023-05-01T01:12:42.484Z,13.65
2023-05-01T01:13:42.502Z,13.67
2023-05-01T01:14:42.486Z,13.67
2023-05-01T01:15:42.516Z,13.67
2023-05-01T01:16:42.483Z,13.64
2023-05-01T01:17:42.496Z,13.67
2023-05-01T01:18:42.466Z,13.65
2023-05-01T01:19:42.454Z,13.64
2023-05-01T01:20:42.441Z,13.64
2023-05-01T01:21:42.432Z,13.60
2023-05-01T01:22:42.427Z,13.57
2023-05-01T01:23:42.653Z,13.55
2023-05-01T01:24:42.375Z,13.55
2023-05-01T01:25:42.384Z,13.55
2023-05-01T01:26:42.358Z,13.51
2023-05-01T01:27:42.337Z,13.53
2023-05-01T01:28:42.382Z,13.53
2023-05-01T01:29:42.320Z,13.58
2023-05-01T01:30:42.391Z,13.54
2023-05-01T01:31:42.371Z,13.57
2023-05-01T01:32:42.423Z,13.55
2023-05-01T01:33:42.332Z,13.49
2023-05-01T01:34:42.266Z,13.53
2023-05-01T01:35:42.266Z,13.54
2023-05-01T01:36:42.248Z,13.53
2023-05-01T01:37:42.231Z,13.49
2023-05-01T01:38:42.267Z,13.51
2023-05-01T01:39:42.201Z,13.51
2023-05-01T01:40:42.230Z,13.49
2023-05-01T01:41:42.222Z,13.51
2023-05-01T01:42:42.198Z,13.42
2023-05-01T01:43:42.189Z,13.36
2023-05-01T01:44:42.157Z,13.30
2023-05-01T01:45:42.203Z,13.27
2023-05-01T01:46:42.304Z,13.27
2023-05-01T01:47:42.294Z,13.30
2023-05-01T01:48:42.134Z,13.29
2023-05-01T01:49:42.132Z,13.29
2023-05-01T01:50:42.143Z,13.29
2023-05-01T01:51:42.146Z,13.30
2023-05-01T01:52:42.118Z,13.29
2023-05-01T01:53:42.066Z,13.30
2023-05-01T01:54:42.086Z,13.29
2023-05-01T01:55:42.130Z,13.27
2023-05-01T01:56:42.108Z,13.29
2023-05-01T01:57:42.082Z,13.29
2023-05-01T01:58:42.028Z,13.27
2023-05-01T01:59:42.034Z,13.29
2023-05-01T02:00:42.031Z,13.23
2023-05-01T02:01:42.040Z,13.21
2023-05-01T02:02:42.147Z,13.21
2023-05-01T02:03:41.988Z,13.19
2023-05-01T02:04:41.999Z,13.16
2023-05-01T02:05:42.061Z,13.20
2023-05-01T02:06:41.989Z,13.17
2023-05-01T02:07:42.023Z,13.17
2023-05-01T02:08:41.952Z,13.16
2023-05-01T02:09:41.921Z,13.13
2023-05-01T02:10:41.913Z,13.09
2023-05-01T02:11:41.887Z,13.11
2023-05-01T02:12:41.880Z,13.08
2023-05-01T02:13:41.906Z,13.05
2023-05-01T02:14:41.934Z,12.98
2023-05-01T02:15:41.939Z,12.90
2023-05-01T02:16:42.012Z,12.91
2023-05-01T02:17:41.911Z,12.91
2023-05-01T02:18:41.865Z,12.91
2023-05-01T02:19:41.885Z,12.93
2023-05-01T02:20:41.810Z,12.98
2023-05-01T02:21:41.810Z,12.96
2023-05-01T02:22:41.787Z,12.96
2023-05-01T02:23:41.780Z,12.93
2023-05-01T02:24:41.785Z,12.93
2023-05-01T02:25:41.774Z,12.95
2023-05-01T02:26:41.779Z,12.98
2023-05-01T02:27:41.739Z,13.01
2023-05-01T02:28:41.732Z,12.99
2023-05-01T02:29:41.758Z,12.98
2023-05-01T02:30:41.819Z,12.98
2023-05-01T02:31:41.761Z,12.96
2023-05-01T02:32:41.711Z,12.88
2023-05-01T02:33:42.497Z,12.84
2023-05-01T02:34:41.675Z,12.81
2023-05-01T02:35:41.713Z,12.80
2023-05-01T02:36:41.665Z,12.83
2023-05-01T02:37:41.668Z,12.80
2023-05-01T02:38:41.616Z,12.77
2023-05-01T02:39:41.611Z,12.79
2023-05-01T02:40:41.643Z,12.80
2023-05-01T02:41:41.598Z,12.81
2023-05-01T02:42:41.628Z,12.80
2023-05-01T02:43:41.702Z,12.86
2023-05-01T02:44:41.600Z,12.83
2023-05-01T02:45:41.668Z,12.80
2023-05-01T02:46:41.606Z,12.80
2023-05-01T02:47:41.553Z,12.76
2023-05-01T02:48:41.573Z,12.73
2023-05-01T02:49:41.536Z,12.69
2023-05-01T02:50:41.535Z,12.71
2023-05-01T02:51:41.525Z,12.73
2023-05-01T02:52:41.473Z,12.72
2023-05-01T02:53:41.498Z,12.77
2023-05-01T02:54:41.479Z,12.76
2023-05-01T02:55:41.463Z,12.80
2023-05-01T02:56:41.524Z,12.77
2023-05-01T02:57:41.454Z,12.79
2023-05-01T02:58:41.442Z,12.77
2023-05-01T02:59:41.411Z,12.73
2023-05-01T03:00:41.418Z,12.71
2023-05-01T03:01:41.534Z,12.66
2023-05-01T03:02:41.430Z,12.66
2023-05-01T03:03:41.481Z,12.65
2023-05-01T03:04:41.418Z,12.68
2023-05-01T03:05:41.356Z,12.69
2023-05-01T03:06:41.568Z,12.69
2023-05-01T03:07:41.330Z,12.69
2023-05-01T03:08:41.338Z,12.68
2023-05-01T03:09:41.367Z,12.71
2023-05-01T03:10:41.314Z,12.71
2023-05-01T03:11:41.295Z,12.68
2023-05-01T03:12:41.313Z,12.69
2023-05-01T03:13:41.292Z,12.68
2023-05-01T03:14:41.331Z,12.68
2023-05-01T03:15:41.365Z,12.63
2023-05-01T03:16:41.321Z,12.61
2023-05-01T03:17:41.469Z,12.55
2023-05-01T03:18:41.234Z,12.53
2023-05-01T03:19:41.241Z,12.48
2023-05-01T03:20:41.244Z,12.50
2023-05-01T03:21:41.168Z,12.47
2023-05-01T03:22:41.187Z,12.54
2023-05-01T03:23:41.272Z,12.54
2023-05-01T03:24:41.173Z,12.54
2023-05-01T03:25:41.200Z,12.61
2023-05-01T03:26:41.137Z,12.62
2023-05-01T03:27:41.140Z,12.63
2023-05-01T03:28:41.108Z,12.65
2023-05-01T03:29:41.126Z,12.69
2023-05-01T03:30:41.135Z,12.69
2023-05-01T03:31:41.170Z,12.71
2023-05-01T03:32:41.075Z,12.72
2023-05-01T03:33:41.048Z,12.73
2023-05-01T03:34:41.017Z,12.72
2023-05-01T03:35:41.120Z,12.66
2023-05-01T03:36:41.056Z,12.68
2023-05-01T03:37:41.081Z,12.66
2023-05-01T03:38:41.014Z,12.69
2023-05-01T03:39:41.038Z,12.69
2023-05-01T03:40:40.967Z,12.77
2023-05-01T03:41:40.956Z,12.68
2023-05-01T03:42:40.951Z,12.62
2023-05-01T03:43:40.906Z,12.62
2023-05-01T03:44:40.959Z,12.58
2023-05-01T03:45:43.231Z,12.59
2023-05-01T03:46:41.539Z,12.62
2023-05-01T03:47:40.892Z,12.63
2023-05-01T03:48:40.867Z,12.69
2023-05-01T03:49:40.954Z,12.65
2023-05-01T03:50:40.840Z,12.65
2023-05-01T03:51:40.929Z,12.66
2023-05-01T03:52:40.854Z,12.69
2023-05-01T03:53:40.833Z,12.68
2023-05-01T03:54:40.824Z,12.69
2023-05-01T03:55:40.801Z,12.71
2023-05-01T03:56:40.854Z,12.69
2023-05-01T03:57:40.789Z,12.73
2023-05-01T03:58:40.755Z,12.73
2023-05-01T03:59:40.818Z,12.73
2023-05-01T04:00:40.806Z,12.71
2023-05-01T04:01:40.814Z,12.76
2023-05-01T04:02:40.805Z,12.72
2023-05-01T04:03:40.847Z,12.68
2023-05-01T04:04:40.938Z,12.66
2023-05-01T04:05:40.769Z,12.65
2023-05-01T04:06:40.842Z,12.63
2023-05-01T04:07:40.730Z,12.63
2023-05-01T04:08:40.684Z,12.62
2023-05-01T04:09:40.693Z,12.63
2023-05-01T04:10:40.690Z,12.62
2023-05-01T04:11:40.641Z,12.62
2023-05-01T04:12:40.675Z,12.63
2023-05-01T04:13:40.621Z,12.63
2023-05-01T04:14:40.605Z,12.68
2023-05-01T04:15:40.682Z,12.65
2023-05-01T04:16:40.760Z,12.66
2023-05-01T04:17:40.642Z,12.69
2023-05-01T04:18:40.625Z,12.73
2023-05-01T04:19:40.540Z,12.71
2023-05-01T04:20:40.568Z,12.72
2023-05-01T04:21:40.538Z,12.73
2023-05-01T04:22:40.553Z,12.72
2023-05-01T04:23:40.518Z,12.73
2023-05-01T04:24:40.528Z,12.77
2023-05-01T04:25:40.563Z,12.79
2023-05-01T04:26:40.504Z,12.84
2023-05-01T04:27:40.658Z,12.83
2023-05-01T04:28:40.485Z,12.81
2023-05-01T04:29:40.461Z,12.88
2023-05-01T04:30:40.487Z,12.84
2023-05-01T04:31:40.546Z,12.86
2023-05-01T04:32:40.450Z,12.83
2023-05-01T04:33:40.495Z,12.81
2023-05-01T04:34:40.414Z,12.80
2023-05-01T04:35:40.393Z,12.79
2023-05-01T04:36:40.501Z,12.73
2023-05-01T04:37:40.368Z,12.77
2023-05-01T04:38:40.448Z,12.79
2023-05-01T04:39:40.361Z,12.77
2023-05-01T04:40:40.495Z,12.80
2023-05-01T04:41:40.368Z,12.83
2023-05-01T04:42:40.344Z,12.81
2023-05-01T04:43:40.336Z,12.83
2023-05-01T04:44:40.355Z,12.80
2023-05-01T04:45:40.357Z,12.83
2023-05-01T04:46:40.340Z,12.83
2023-05-01T04:47:40.297Z,12.83
2023-05-01T04:48:40.252Z,12.84
2023-05-01T04:49:40.506Z,12.86
2023-05-01T04:50:40.235Z,12.90
2023-05-01T04:51:40.226Z,12.90
2023-05-01T04:52:40.296Z,12.90
2023-05-01T04:53:40.241Z,12.93
2023-05-01T04:54:40.220Z,12.93
2023-05-01T04:55:40.216Z,12.95
2023-05-01T04:56:40.178Z,12.88
2023-05-01T04:57:40.184Z,12.93
2023-05-01T04:58:40.154Z,12.91
2023-05-01T04:59:40.174Z,12.93
2023-05-01T05:00:40.155Z,12.93
2023-05-01T05:01:40.217Z,12.87
2023-05-01T05:02:40.226Z,12.86
2023-05-01T05:03:40.212Z,12.83
2023-05-01T05:04:40.132Z,12.80
2023-05-01T05:05:40.133Z,12.80
2023-05-01T05:06:40.127Z,12.80
2023-05-01T05:07:40.127Z,12.86
2023-05-01T05:08:40.093Z,12.87
2023-05-01T05:09:40.054Z,12.86
2023-05-01T05:10:40.075Z,12.88
2023-05-01T05:11:40.041Z,12.88
2023-05-01T05:12:40.061Z,12.90
2023-05-01T05:13:40.004Z,12.87
2023-05-01T05:14:40.002Z,12.91
2023-05-01T05:15:40.011Z,12.88
2023-05-01T05:16:40.079Z,12.91
2023-05-01T05:17:39.999Z,12.90
2023-05-01T05:18:39.960Z,12.95
2023-05-01T05:19:39.933Z,12.98
2023-05-01T05:20:39.917Z,12.98
2023-05-01T05:21:39.979Z,12.93
2023-05-01T05:22:39.937Z,12.96
2023-05-01T05:23:39.910Z,12.98
2023-05-01T05:24:39.923Z,13.02
2023-05-01T05:25:39.900Z,13.04
2023-05-01T05:26:39.941Z,13.06
2023-05-01T05:27:39.862Z,13.08
2023-05-01T05:28:39.888Z,13.13
2023-05-01T05:29:39.845Z,13.16
2023-05-01T05:30:39.856Z,13.13
2023-05-01T05:31:39.869Z,13.09
2023-05-01T05:32:39.843Z,13.02
2023-05-01T05:33:39.813Z,12.96
2023-05-01T05:34:39.822Z,12.98
2023-05-01T05:35:39.789Z,12.96
2023-05-01T05:36:39.822Z,13.06
2023-05-01T05:37:39.824Z,13.08
2023-05-01T05:38:39.795Z,13.13
2023-05-01T05:39:39.803Z,13.17
2023-05-01T05:40:39.763Z,13.19
2023-05-01T05:41:39.743Z,13.20
2023-05-01T05:42:39.716Z,13.27
2023-05-01T05:43:40.779Z,13.24
2023-05-01T05:44:39.704Z,13.29
2023-05-01T05:45:39.736Z,13.32
2023-05-01T05:46:39.710Z,13.38
2023-05-01T05:47:39.730Z,13.36
2023-05-01T05:48:39.689Z,13.42
2023-05-01T05:49:39.734Z,13.42
2023-05-01T05:50:39.659Z,13.43
2023-05-01T05:51:39.672Z,13.43
2023-05-01T05:52:39.617Z,13.49
2023-05-01T05:53:39.617Z,13.49
2023-05-01T05:54:39.604Z,13.54
2023-05-01T05:55:39.656Z,13.54
2023-05-01T05:56:39.588Z,13.58
2023-05-01T05:57:39.584Z,13.67
2023-05-01T05:58:39.621Z,13.75
2023-05-01T05:59:39.568Z,13.83
2023-05-01T06:00:39.534Z,14.00
2023-05-01T06:01:39.539Z,14.08
2023-05-01T06:02:39.682Z,14.05
2023-05-01T06:03:39.728Z,14.03
2023-05-01T06:04:39.559Z,14.04
2023-05-01T06:05:39.596Z,14.13
2023-05-01T06:06:39.536Z,14.19
2023-05-01T06:07:39.493Z,14.26
2023-05-01T06:08:39.500Z,14.23
2023-05-01T06:09:39.630Z,14.23
2023-05-01T06:10:39.441Z,14.22
2023-05-01T06:11:39.450Z,14.28
2023-05-01T06:12:44.677Z,14.30
2023-05-01T06:13:39.440Z,14.33
2023-05-01T06:14:39.553Z,14.37
2023-05-01T06:15:39.463Z,14.49
2023-05-01T06:16:39.416Z,14.67
2023-05-01T06:17:39.432Z,14.78
2023-05-01T06:18:39.363Z,14.89
2023-05-01T06:19:39.353Z,14.87
2023-05-01T06:20:39.342Z,14.92
2023-05-01T06:21:39.330Z,14.86
2023-05-01T06:22:39.410Z,14.83
2023-05-01T06:23:39.346Z,14.73
2023-05-01T06:24:39.299Z,14.69
2023-05-01T06:25:39.312Z,14.63
2023-05-01T06:26:39.347Z,14.58
2023-05-01T06:27:39.358Z,14.58
2023-05-01T06:28:39.425Z,14.55
2023-05-01T06:29:39.226Z,14.55
2023-05-01T06:30:39.358Z,14.61
2023-05-01T06:31:39.360Z,14.71
2023-05-01T06:32:39.264Z,14.82
2023-05-01T06:33:39.370Z,14.82
2023-05-01T06:34:39.220Z,14.85
2023-05-01T06:35:39.260Z,14.92
2023-05-01T06:36:39.351Z,14.99
2023-05-01T06:37:39.195Z,15.04
2023-05-01T06:38:39.300Z,15.07
2023-05-01T06:39:39.163Z,15.20
2023-05-01T06:40:39.123Z,15.38
2023-05-01T06:41:39.173Z,15.63
2023-05-01T06:42:39.186Z,15.84
2023-05-01T06:43:39.137Z,16.13
2023-05-01T06:44:39.086Z,16.43
2023-05-01T06:45:39.088Z,16.49
2023-05-01T06:46:39.202Z,16.33
2023-05-01T06:47:39.147Z,16.18
2023-05-01T06:48:39.113Z,16.08
2023-05-01T06:49:39.047Z,16.05
2023-05-01T06:50:39.036Z,15.96
2023-05-01T06:51:39.035Z,15.96
2023-05-01T06:52:39.081Z,15.91
2023-05-01T06:53:38.990Z,15.81
2023-05-01T06:54:39.008Z,15.76
2023-05-01T06:55:38.969Z,15.77
2023-05-01T06:56:38.981Z,15.66
2023-05-01T06:57:39.072Z,15.60
2023-05-01T06:58:38.976Z,15.60
2023-05-01T06:59:38.931Z,15.60
2023-05-01T07:00:39.031Z,15.50
2023-05-01T07:01:38.936Z,15.45
2023-05-01T07:02:39.082Z,15.50
2023-05-01T07:03:39.062Z,15.47
2023-05-01T07:04:38.909Z,15.44
2023-05-01T07:05:38.886Z,15.48
2023-05-01T07:06:38.905Z,15.50
2023-05-01T07:07:42.243Z,15.54
2023-05-01T07:08:38.901Z,15.58
2023-05-01T07:09:38.874Z,15.58
2023-05-01T07:10:41.776Z,15.56
2023-05-01T07:11:38.852Z,15.52
2023-05-01T07:12:39.471Z,15.47
2023-05-01T07:13:38.855Z,15.38
2023-05-01T07:14:38.792Z,15.35
2023-05-01T07:15:38.774Z,15.32
2023-05-01T07:16:38.888Z,15.27
2023-05-01T07:17:38.854Z,15.23
2023-05-01T07:18:38.768Z,15.22
2023-05-01T07:19:38.896Z,15.04
2023-05-01T07:20:38.781Z,14.86
2023-05-01T07:21:38.785Z,14.83
2023-05-01T07:22:38.739Z,14.63
2023-05-01T07:23:38.778Z,14.55
2023-05-01T07:24:38.771Z,14.53
2023-05-01T07:25:38.688Z,14.58
2023-05-01T07:26:38.682Z,14.59
2023-05-01T07:27:38.683Z,14.61
2023-05-01T07:28:38.716Z,14.52
2023-05-01T07:29:38.752Z,14.49
2023-05-01T07:30:38.649Z,14.46
2023-05-01T07:31:38.640Z,14.51
2023-05-01T07:32:38.649Z,14.53
2023-05-01T07:33:38.757Z,14.61
2023-05-01T07:34:38.660Z,14.69
2023-05-01T07:35:38.588Z,14.77
2023-05-01T07:36:38.724Z,14.86
2023-05-01T07:37:38.652Z,14.96
2023-05-01T07:38:38.576Z,15.05
2023-05-01T07:39:38.569Z,15.17
2023-05-01T07:40:38.640Z,15.17
2023-05-01T07:41:38.537Z,15.22
2023-05-01T07:42:38.548Z,15.23
2023-05-01T07:43:38.550Z,15.22
2023-05-01T07:44:38.543Z,15.22
2023-05-01T07:45:38.533Z,15.22
2023-05-01T07:46:38.780Z,15.25
2023-05-01T07:47:38.520Z,15.20
2023-05-01T07:48:39.110Z,15.15
2023-05-01T07:49:38.479Z,15.08
2023-05-01T07:50:38.547Z,15.12
2023-05-01T07:51:38.471Z,15.15
2023-05-01T07:52:38.427Z,15.19
2023-05-01T07:53:38.456Z,15.17
2023-05-01T07:54:38.380Z,15.07
2023-05-01T07:55:38.457Z,15.03
2023-05-01T07:56:38.414Z,14.97
2023-05-01T07:57:38.397Z,15.04
2023-05-01T07:58:38.394Z,15.08
2023-05-01T07:59:38.365Z,15.08
2023-05-01T08:00:38.415Z,15.10
2023-05-01T08:01:38.348Z,15.15
2023-05-01T08:02:38.354Z,15.23
2023-05-01T08:03:38.581Z,15.22
2023-05-01T08:04:38.373Z,15.10
2023-05-01T08:05:38.322Z,15.03
2023-05-01T08:06:38.459Z,15.04
2023-05-01T08:07:38.273Z,15.10
2023-05-01T08:08:38.331Z,15.15
2023-05-01T08:09:38.252Z,15.26
2023-05-01T08:10:38.337Z,15.36
2023-05-01T08:11:38.222Z,15.43
2023-05-01T08:12:38.250Z,15.50
2023-05-01T08:13:38.213Z,15.56
2023-05-01T08:14:38.256Z,15.56
2023-05-01T08:15:38.246Z,15.62
2023-05-01T08:16:38.245Z,15.66
2023-05-01T08:17:38.253Z,15.68
2023-05-01T08:18:38.204Z,15.73
2023-05-01T08:19:38.147Z,15.78
2023-05-01T08:20:38.225Z,15.78
2023-05-01T08:21:38.152Z,15.70
2023-05-01T08:22:38.163Z,15.73
2023-05-01T08:23:38.148Z,15.70
2023-05-01T08:24:38.146Z,15.72
2023-05-01T08:25:38.282Z,15.76
2023-05-01T08:26:38.100Z,15.77
2023-05-01T08:27:38.087Z,15.84
2023-05-01T08:28:38.084Z,15.90
2023-05-01T08:29:38.039Z,15.98
2023-05-01T08:30:38.064Z,16.03
2023-05-01T08:31:38.310Z,16.03
2023-05-01T08:32:38.063Z,16.05
2023-05-01T08:33:38.124Z,16.05
2023-05-01T08:34:37.998Z,16.00
2023-05-01T08:35:38.072Z,15.93
2023-05-01T08:36:38.057Z,15.93
2023-05-01T08:37:38.022Z,15.87
2023-05-01T08:38:38.046Z,15.90
2023-05-01T08:39:37.960Z,15.88
2023-05-01T08:40:38.103Z,15.87
2023-05-01T08:41:38.068Z,15.90
2023-05-01T08:42:38.011Z,15.96
2023-05-01T08:43:37.950Z,15.99
2023-05-01T08:44:37.973Z,16.08
2023-05-01T08:45:38.160Z,16.09
2023-05-01T08:46:37.915Z,16.18
2023-05-01T08:47:37.914Z,16.24
2023-05-01T08:48:37.923Z,16.32
2023-05-01T08:49:37.850Z,16.34
2023-05-01T08:50:37.926Z,16.42
2023-05-01T08:51:37.842Z,16.43
2023-05-01T08:52:37.844Z,16.44
2023-05-01T08:53:37.842Z,16.46
2023-05-01T08:54:37.902Z,16.46
2023-05-01T08:55:37.818Z,16.49
2023-05-01T08:56:37.821Z,16.54
2023-05-01T08:57:37.869Z,16.58
2023-05-01T08:58:37.828Z,16.61
2023-05-01T08:59:37.851Z,16.64
2023-05-01T09:00:37.758Z,16.73
2023-05-01T09:01:37.918Z,16.72
2023-05-01T09:02:37.834Z,16.70
2023-05-01T09:03:37.798Z,16.65
2023-05-01T09:04:37.735Z,16.65
2023-05-01T09:05:37.827Z,16.64
2023-05-01T09:06:37.725Z,16.52
2023-05-01T09:07:37.948Z,16.47
2023-05-01T09:08:37.696Z,16.54
2023-05-01T09:09:37.701Z,16.62
2023-05-01T09:10:37.680Z,16.70
2023-05-01T09:11:37.642Z,16.69
2023-05-01T09:12:37.618Z,16.73
2023-05-01T09:13:37.698Z,16.77
2023-05-01T09:14:37.632Z,16.84
2023-05-01T09:15:37.653Z,16.95
2023-05-01T09:16:37.654Z,17.02
2023-05-01T09:17:37.664Z,17.14
2023-05-01T09:18:37.628Z,17.16
2023-05-01T09:19:37.598Z,17.19
2023-05-01T09:20:37.544Z,17.22
2023-05-01T09:21:37.591Z,17.27
2023-05-01T09:22:37.554Z,17.27
2023-05-01T09:23:37.508Z,17.35
2023-05-01T09:24:37.530Z,17.30
2023-05-01T09:25:37.500Z,17.02
2023-05-01T09:26:37.521Z,16.95
2023-05-01T09:27:37.590Z,17.01
2023-05-01T09:28:37.494Z,17.07
2023-05-01T09:29:37.529Z,17.09
2023-05-01T09:30:37.478Z,17.17
2023-05-01T09:31:37.480Z,17.25
2023-05-01T09:32:37.511Z,17.34
2023-05-01T09:33:37.397Z,17.45
2023-05-01T09:34:37.387Z,17.43
2023-05-01T09:35:37.604Z,17.37
2023-05-01T09:36:37.382Z,17.39
2023-05-01T09:37:37.432Z,17.45
2023-05-01T09:38:37.381Z,17.49
2023-05-01T09:39:37.507Z,17.41
2023-05-01T09:40:37.413Z,17.43
2023-05-01T09:41:37.318Z,17.43
2023-05-01T09:42:37.434Z,17.45
2023-05-01T09:43:37.415Z,17.43
2023-05-01T09:44:37.291Z,17.34
2023-05-01T09:45:37.544Z,17.28
2023-05-01T09:46:37.344Z,17.25
2023-05-01T09:47:37.327Z,17.22
2023-05-01T09:48:37.273Z,17.25
2023-05-01T09:49:37.284Z,17.43
2023-05-01T09:50:37.298Z,17.46
2023-05-01T09:51:37.195Z,17.54
2023-05-01T09:52:37.196Z,17.63
2023-05-01T09:53:37.210Z,17.66
2023-05-01T09:54:37.224Z,17.71
2023-05-01T09:55:37.225Z,17.68
2023-05-01T09:56:37.258Z,17.59
2023-05-01T09:57:37.171Z,17.53
2023-05-01T09:58:37.149Z,17.53
2023-05-01T09:59:37.220Z,17.49
2023-05-01T10:00:37.156Z,17.49
2023-05-01T10:01:37.235Z,17.47
2023-05-01T10:02:37.210Z,17.32
2023-05-01T10:03:37.152Z,17.20
2023-05-01T10:04:37.098Z,17.10
2023-05-01T10:05:37.103Z,16.98
2023-05-01T10:06:37.251Z,16.99
2023-05-01T10:07:37.086Z,17.02
2023-05-01T10:08:37.100Z,17.06
2023-05-01T10:09:37.074Z,17.17
2023-05-01T10:10:37.081Z,17.20
2023-05-01T10:11:37.097Z,17.30
2023-05-01T10:12:37.053Z,17.31
2023-05-01T10:13:37.006Z,17.39
2023-05-01T10:14:36.986Z,17.49
2023-05-01T10:15:37.015Z,17.59
2023-05-01T10:16:37.073Z,17.72
2023-05-01T10:17:37.103Z,17.78
2023-05-01T10:18:37.012Z,17.83
2023-05-01T10:19:36.959Z,17.86
2023-05-01T10:20:36.959Z,17.86
2023-05-01T10:21:36.978Z,17.91
2023-05-01T10:22:36.931Z,17.96
2023-05-01T10:23:36.907Z,18.03
2023-05-01T10:24:36.906Z,18.05
2023-05-01T10:25:36.865Z,18.12
2023-05-01T10:26:36.854Z,18.21
2023-05-01T10:27:36.856Z,18.20
2023-05-01T10:28:36.834Z,18.24
2023-05-01T10:29:36.875Z,18.28
2023-05-01T10:30:37.034Z,18.28
2023-05-01T10:31:36.861Z,18.28
2023-05-01T10:32:36.878Z,18.21
2023-05-01T10:33:36.776Z,18.18
2023-05-01T10:34:36.799Z,18.11
2023-05-01T10:35:36.783Z,18.13
2023-05-01T10:36:36.761Z,18.13
2023-05-01T10:37:36.756Z,18.21
2023-05-01T10:38:36.746Z,18.28
2023-05-01T10:39:36.866Z,18.41
2023-05-01T10:40:37.118Z,18.46
2023-05-01T10:41:36.781Z,18.48
2023-05-01T10:42:36.723Z,18.28
2023-05-01T10:43:36.867Z,18.17
2023-05-01T10:44:36.713Z,18.09
2023-05-01T10:45:36.766Z,18.11
2023-05-01T10:46:36.687Z,18.18
2023-05-01T10:47:36.707Z,18.30
2023-05-01T10:48:36.741Z,18.36
2023-05-01T10:49:36.736Z,18.39
2023-05-01T10:50:36.678Z,18.43
2023-05-01T10:51:36.681Z,18.57
2023-05-01T10:52:36.894Z,18.64
2023-05-01T10:53:36.657Z,18.67
2023-05-01T10:54:36.567Z,18.66
2023-05-01T10:55:36.809Z,18.61
2023-05-01T10:56:36.561Z,18.66
2023-05-01T10:57:36.624Z,18.68
2023-05-01T10:58:36.569Z,18.70
2023-05-01T10:59:36.578Z,18.75
2023-05-01T11:00:36.512Z,18.70
2023-05-01T11:01:36.570Z,18.74
2023-05-01T11:02:36.625Z,18.76
2023-05-01T11:03:36.621Z,18.81
2023-05-01T11:04:36.526Z,18.85
2023-05-01T11:05:38.698Z,18.89
2023-05-01T11:06:36.695Z,18.88
2023-05-01T11:07:36.490Z,18.91
2023-05-01T11:08:36.462Z,18.93
2023-05-01T11:09:36.483Z,18.85
2023-05-01T11:10:36.395Z,18.85
2023-05-01T11:11:36.439Z,18.88
2023-05-01T11:12:36.415Z,18.94
2023-05-01T11:13:36.657Z,19.04
2023-05-01T11:14:36.417Z,19.16
2023-05-01T11:15:36.492Z,19.24
2023-05-01T11:16:36.545Z,19.31
2023-05-01T11:17:36.519Z,19.31
2023-05-01T11:18:36.385Z,19.41
2023-05-01T11:19:36.408Z,19.44
2023-05-01T11:20:36.463Z,19.53
2023-05-01T11:21:36.299Z,19.62
2023-05-01T11:22:36.341Z,19.57
2023-05-01T11:23:36.276Z,19.44
2023-05-01T11:24:36.284Z,19.39
2023-05-01T11:25:36.439Z,19.42
2023-05-01T11:26:36.232Z,19.49
2023-05-01T11:27:36.354Z,19.54
2023-05-01T11:28:36.228Z,19.60
2023-05-01T11:29:36.213Z,19.72
2023-05-01T11:30:36.231Z,19.84
2023-05-01T11:31:36.217Z,19.97
2023-05-01T11:32:36.218Z,20.08
2023-05-01T11:33:36.313Z,20.11
2023-05-01T11:34:36.170Z,20.22
2023-05-01T11:35:36.146Z,20.26
2023-05-01T11:36:36.165Z,20.27
2023-05-01T11:37:36.158Z,20.32
2023-05-01T11:38:36.175Z,20.29
2023-05-01T11:39:36.120Z,20.25
2023-05-01T11:40:37.110Z,20.11
2023-05-01T11:41:36.148Z,20.04
2023-05-01T11:42:36.143Z,20.02
2023-05-01T11:43:36.058Z,20.02
2023-05-01T11:44:36.058Z,20.04
2023-05-01T11:45:36.197Z,20.07
2023-05-01T11:46:36.243Z,20.09
2023-05-01T11:47:36.094Z,20.14
2023-05-01T11:48:36.127Z,20.22
2023-05-01T11:49:36.029Z,20.26
2023-05-01T11:50:36.193Z,20.37
2023-05-01T11:51:36.026Z,20.42
2023-05-01T11:52:36.013Z,20.44
2023-05-01T11:53:36.131Z,20.48
2023-05-01T11:54:35.973Z,20.48
2023-05-01T11:55:35.970Z,20.46
2023-05-01T11:56:36.074Z,20.49
2023-05-01T11:57:36.025Z,20.44
2023-05-01T11:58:35.958Z,20.29
2023-05-01T11:59:35.957Z,20.18
2023-05-01T12:00:35.992Z,20.07
2023-05-01T12:01:36.013Z,20.00
2023-05-01T12:02:35.949Z,20.05
2023-05-01T12:03:35.962Z,20.14
2023-05-01T12:04:35.929Z,20.19
2023-05-01T12:05:35.883Z,20.19
2023-05-01T12:06:35.887Z,20.30
2023-05-01T12:07:35.828Z,20.34
2023-05-01T12:08:35.942Z,20.39
2023-05-01T12:09:35.827Z,20.37
2023-05-01T12:10:35.833Z,20.39
2023-05-01T12:11:35.958Z,20.46
2023-05-01T12:12:35.848Z,20.46
2023-05-01T12:13:35.808Z,20.32
2023-05-01T12:14:35.783Z,20.15
2023-05-01T12:15:35.965Z,20.11
2023-05-01T12:16:35.783Z,20.09
2023-05-01T12:17:35.845Z,20.15
2023-05-01T12:18:35.739Z,20.22
2023-05-01T12:19:35.709Z,20.23
2023-05-01T12:20:35.719Z,20.23
2023-05-01T12:21:35.720Z,20.26
2023-05-01T12:22:35.693Z,20.29
2023-05-01T12:23:36.124Z,20.33
2023-05-01T12:24:35.724Z,20.36
2023-05-01T12:25:35.728Z,20.36
2023-05-01T12:26:35.701Z,20.42
2023-05-01T12:27:35.654Z,20.46
2023-05-01T12:28:35.641Z,20.50
2023-05-01T12:29:35.631Z,20.52
2023-05-01T12:30:35.664Z,20.58
2023-05-01T12:31:35.663Z,20.61
2023-05-01T12:32:35.639Z,20.64
2023-05-01T12:33:35.583Z,20.60
2023-05-01T12:34:35.680Z,20.53
2023-05-01T12:35:35.626Z,20.55
2023-05-01T12:36:35.591Z,20.55
2023-05-01T12:37:35.521Z,20.55
2023-05-01T12:38:35.525Z,20.50
2023-05-01T12:39:35.512Z,20.48
2023-05-01T12:40:35.629Z,20.42
2023-05-01T12:41:35.520Z,20.37
2023-05-01T12:42:35.521Z,20.32
2023-05-01T12:43:35.492Z,20.29
2023-05-01T12:44:35.651Z,20.25
2023-05-01T12:45:35.448Z,20.25
2023-05-01T12:46:35.596Z,20.22
2023-05-01T12:47:35.510Z,20.14
2023-05-01T12:48:35.480Z,20.11
2023-05-01T12:49:35.415Z,19.92
2023-05-01T12:50:35.431Z,19.84
2023-05-01T12:51:35.381Z,19.81
2023-05-01T12:52:35.426Z,19.84